Hauptseite
METAR-TAF:

METAR-TAF

Flughäfen :

Hohenfels, Deutschland

Breite: 49-13N, Länge: 011-50E, Höhe: 442 m

Beobachtung

Neuester Wetterbericht von vor 34 Minuten, um 20:30 UTC
Wind 4 kt aus Südwest
Temperatur 8°C
Luftfeuchtigkeit 81%
Luftdruck 1002 hPa
Sichtweite 10 km oder mehr
Aufgelockert bewölkt in der Höhe von 2300 ft
Durchbrochene Bewölkung in der Höhe von 2900 ft
Geschlossene Wolkendecke in der Höhe von 4100 ft

METAR: ETIH 272030Z AUTO 22004KT 9999 SCT023 BKN029 OVC041 08/05 A2958 RMK AO2 CIG 025V041 SLP024 PWINO $

Zeit: 23:04 (21:04 UTC)


TAF: fehlend

Wetterbeobachtungen und Prognosen von mehr als 4000 Flughäfen (METAR und TAF Bericht).

Die verfügbaren Stationen werden durch gelbe und rote Markierungen auf der Karte dargestellt.

Führen Sie die Maus auf sie, um den Namen der Station zu sehen.

Darauf klicken, um die Beobachtung von Wetterbeobachtungen und Prognosen zu sehen.

Um die Karte zu ändern : klicken Sie auf den grünen Tasten mit einem schwarzen Kreuz Zum Vergrößern, auf den grünen Button mit einem Gedankenstrich zu verkleinern, oder auf die grünen Pfeile für benachbarte Karten.


METAR-TAF: